CAGO2: Washita River At Carnegie, OK

Data processed at Tue May 21 2019 23:50


All information presented herein is the property of the government of the United States of America and may be revised or deleted at any time without prior notice.
Dissemination of this information without the expressed written consent of the Public Affairs Office, Tulsa District U.S. Army Corps of Engineers is strictly prohibited.
These data are gathered electronically and, as presented, have not undergone any form of quality control. These data are not guaranteed to be valid or correct.
Go to home page.
Go to station list.
Go to home page.

Upstream stations:

Downstream station:
Previous Day
Next Day
Current Day
    
SHEF ID:       CAGO2     Washita River at Carnegie, OK
STATION TYPE:  
Regulating: Stage =    23.00, Flow =     9915

               PRECIP     STAGE  RIV-FLOW  BAT-LOAD
                   in        ft       cfs      volt
              Ccp-Rev   Ccp-Rev   Ccp-Rev   Ccp-Rev
(US/Central)
05/21 00:00      0.00     10.77      1879     12.65
05/21 01:00      0.94     11.99      2300     12.65
05/21 02:00      0.04     13.02      2743     12.65
05/21 03:00      0.08     13.67      3023     12.57
05/21 04:00      0.21     13.91      3130     12.57
05/21 05:00      0.22     14.10      3216     12.57
05/21 06:00      0.04     14.20      3262     12.57
05/21 07:00      0.00     14.30      3307     12.57
05/21 08:00      0.01     14.52      3409     12.57
05/21 09:00      0.00     14.71      3498     13.21
05/21 10:00      0.00     14.96      3627     13.37
05/21 11:00      0.00     15.23      3777     13.53
05/21 12:00      0.00     15.53      3946     14.08
05/21 13:00      0.00     15.86      4135     14.08
05/21 14:00      0.00     16.28      4384      ----
05/21 15:00      0.00     16.63      4596     14.00
05/21 16:00      0.00     16.94      4782     13.92
05/21 17:00      0.00     17.20      4937     13.21
05/21 18:00      0.00     17.43      5075     12.97
05/21 19:00      0.00     17.65      5208     12.97
05/21 20:00      0.00     17.80      5300     12.97
05/21 21:00      0.00     17.92      5393     12.81
05/21 22:00      0.00     18.03      5479     12.81
05/21 23:00      0.00     18.14      5566     12.81